createdAt,value
2022-10-23T00:01:27.062Z,15.12
2022-10-23T00:04:28.495Z,15.14
2022-10-23T00:10:32.216Z,15.14
2022-10-23T00:13:33.682Z,15.15
2022-10-23T00:16:35.678Z,15.14
2022-10-23T00:19:37.076Z,15.14
2022-10-23T00:22:38.617Z,15.17
2022-10-23T00:25:40.102Z,15.18
2022-10-23T00:28:46.763Z,15.15
2022-10-23T00:31:48.155Z,15.14
2022-10-23T00:34:51.982Z,15.20
2022-10-23T00:37:53.390Z,15.24
2022-10-23T00:40:54.824Z,15.19
2022-10-23T00:43:56.257Z,15.16
2022-10-23T00:46:59.096Z,15.14
2022-10-23T00:50:01.696Z,15.14
2022-10-23T00:53:04.890Z,15.14
2022-10-23T00:56:06.684Z,15.12
2022-10-23T00:59:08.122Z,15.13
2022-10-23T01:02:09.924Z,15.12
2022-10-23T01:05:11.822Z,15.13
2022-10-23T01:08:26.582Z,15.10
2022-10-23T01:11:37.854Z,15.13
2022-10-23T01:14:54.821Z,15.10
2022-10-23T01:17:56.417Z,15.09
2022-10-23T01:21:05.450Z,15.06
2022-10-23T01:24:19.478Z,15.11
2022-10-23T01:27:26.413Z,15.06
2022-10-23T01:30:29.757Z,15.03
2022-10-23T01:33:41.241Z,15.00
2022-10-23T01:36:47.425Z,15.00
2022-10-23T01:39:54.801Z,14.99
2022-10-23T01:43:01.327Z,14.94
2022-10-23T01:46:08.414Z,14.90
2022-10-23T01:49:14.817Z,14.89
2022-10-23T01:52:18.299Z,14.91
2022-10-23T01:55:23.842Z,14.92
2022-10-23T01:58:28.011Z,14.92
2022-10-23T02:01:30.990Z,14.96
2022-10-23T02:04:38.662Z,14.96
2022-10-23T02:07:40.651Z,14.94
2022-10-23T02:11:09.629Z,14.90
2022-10-23T02:14:24.420Z,14.99
2022-10-23T02:18:00.407Z,14.97
2022-10-23T02:21:10.126Z,14.95
2022-10-23T02:24:15.594Z,14.98
2022-10-23T02:27:30.302Z,14.96
2022-10-23T02:30:33.384Z,14.94
2022-10-23T02:33:45.836Z,14.94
2022-10-23T02:36:47.273Z,14.91
2022-10-23T02:39:49.161Z,14.89
2022-10-23T02:43:03.728Z,14.88
2022-10-23T02:46:18.354Z,14.86
2022-10-23T02:49:30.978Z,14.87
2022-10-23T02:52:46.003Z,14.83
2022-10-23T02:56:02.191Z,14.86
2022-10-23T02:59:13.698Z,14.92
2022-10-23T03:02:23.267Z,14.89
2022-10-23T03:05:29.501Z,14.83
2022-10-23T03:08:41.813Z,14.88
2022-10-23T03:11:43.284Z,14.90
2022-10-23T03:14:44.775Z,14.90
2022-10-23T03:17:46.180Z,14.96
2022-10-23T03:20:49.782Z,14.92
2022-10-23T03:23:51.202Z,14.91
2022-10-23T03:26:57.872Z,14.89
2022-10-23T03:30:06.505Z,14.89
2022-10-23T03:33:09.917Z,14.84
2022-10-23T03:36:11.346Z,14.86
2022-10-23T03:39:12.804Z,14.86
2022-10-23T03:42:14.341Z,14.86
2022-10-23T03:45:15.811Z,14.82
2022-10-23T03:48:17.400Z,14.80
2022-10-23T03:51:19.425Z,14.80
2022-10-23T03:54:26.292Z,14.84
2022-10-23T03:57:27.699Z,14.82
2022-10-23T04:00:29.266Z,14.79
2022-10-23T04:03:30.758Z,14.76
2022-10-23T04:06:32.220Z,14.73
2022-10-23T04:09:33.880Z,14.69
2022-10-23T04:12:38.077Z,14.65
2022-10-23T04:15:40.834Z,14.69
2022-10-23T04:18:42.311Z,14.65
2022-10-23T04:21:44.850Z,14.62
2022-10-23T04:24:47.969Z,14.60
2022-10-23T04:27:52.847Z,14.54
2022-10-23T04:30:54.870Z,14.49
2022-10-23T04:33:56.365Z,14.52
2022-10-23T04:37:05.173Z,14.51
2022-10-23T04:40:07.409Z,14.52
2022-10-23T04:43:10.887Z,14.50
2022-10-23T04:46:14.516Z,14.56
2022-10-23T04:49:15.946Z,14.57
2022-10-23T04:52:23.730Z,14.58
2022-10-23T04:55:59.450Z,14.60
2022-10-23T04:59:10.280Z,14.54
2022-10-23T05:02:13.277Z,14.66
2022-10-23T05:05:15.932Z,14.64
2022-10-23T05:08:43.726Z,14.69
2022-10-23T05:11:51.165Z,14.75
2022-10-23T05:14:53.333Z,14.70
2022-10-23T05:17:59.922Z,14.66
2022-10-23T05:21:13.866Z,14.66
2022-10-23T05:24:15.351Z,14.66
2022-10-23T05:27:28.060Z,14.70
2022-10-23T05:30:32.972Z,14.67
2022-10-23T05:33:37.149Z,14.63
2022-10-23T05:36:39.595Z,14.64
2022-10-23T05:39:42.028Z,14.63
2022-10-23T05:42:48.998Z,14.63
2022-10-23T05:45:55.148Z,14.67
2022-10-23T05:49:08.490Z,14.70
2022-10-23T05:52:38.901Z,14.72
2022-10-23T05:55:49.863Z,14.74
2022-10-23T05:59:10.321Z,14.75
2022-10-23T06:02:27.001Z,14.76
2022-10-23T06:05:35.461Z,14.79
2022-10-23T06:08:55.243Z,14.76
2022-10-23T06:11:57.181Z,14.73
2022-10-23T06:14:58.856Z,14.70
2022-10-23T06:18:12.199Z,14.78
2022-10-23T06:21:26.000Z,14.73
2022-10-23T06:24:27.868Z,14.69
2022-10-23T06:27:34.944Z,14.66
2022-10-23T06:30:39.585Z,14.64
2022-10-23T06:33:41.656Z,14.65
2022-10-23T06:36:44.885Z,14.63
2022-10-23T06:40:05.918Z,14.67
2022-10-23T06:43:27.298Z,14.71
2022-10-23T06:46:51.318Z,14.71
2022-10-23T06:50:14.546Z,14.75
2022-10-23T06:53:19.420Z,14.71
2022-10-23T06:56:29.087Z,14.79
2022-10-23T06:59:30.658Z,14.81
2022-10-23T07:02:32.052Z,14.88
2022-10-23T07:05:33.562Z,14.91
2022-10-23T07:08:36.054Z,14.93
2022-10-23T07:11:44.210Z,14.96
2022-10-23T07:14:45.896Z,14.98
2022-10-23T07:17:47.343Z,15.02
2022-10-23T07:20:51.002Z,15.07
2022-10-23T07:23:52.473Z,15.15
2022-10-23T07:26:55.795Z,15.28
2022-10-23T07:30:00.146Z,15.34
2022-10-23T07:33:05.548Z,15.32
2022-10-23T07:36:29.568Z,15.30
2022-10-23T07:39:30.986Z,15.37
2022-10-23T07:42:32.563Z,15.34
2022-10-23T07:45:34.022Z,15.36
2022-10-23T07:48:42.334Z,15.37
2022-10-23T07:51:47.504Z,15.47
2022-10-23T07:54:52.329Z,15.47
2022-10-23T07:57:55.096Z,15.52
2022-10-23T08:01:16.431Z,15.54
2022-10-23T08:04:19.416Z,15.57
2022-10-23T08:07:43.680Z,15.62
2022-10-23T08:10:49.742Z,15.73
2022-10-23T08:13:58.447Z,16.00
2022-10-23T08:17:04.696Z,16.12
2022-10-23T08:20:26.405Z,16.26
2022-10-23T08:23:28.749Z,16.37
2022-10-23T08:26:30.511Z,16.42
2022-10-23T08:29:32.002Z,16.50
2022-10-23T08:32:33.945Z,16.64
2022-10-23T08:35:38.273Z,16.99
2022-10-23T08:38:40.805Z,17.13
2022-10-23T08:41:51.112Z,17.19
2022-10-23T08:45:02.136Z,17.18
2022-10-23T08:48:18.482Z,17.23
2022-10-23T08:51:49.052Z,17.21
2022-10-23T08:55:15.822Z,17.21
2022-10-23T08:58:23.681Z,17.34
2022-10-23T09:01:38.524Z,17.33
2022-10-23T09:04:43.053Z,17.47
2022-10-23T09:07:54.695Z,17.52
2022-10-23T09:11:01.796Z,17.73
2022-10-23T09:14:34.649Z,17.72
2022-10-23T09:17:42.208Z,17.72
2022-10-23T09:20:47.208Z,17.82
2022-10-23T09:23:48.660Z,17.95
2022-10-23T09:26:53.015Z,17.95
2022-10-23T09:29:55.864Z,17.88
2022-10-23T09:32:57.847Z,17.94
2022-10-23T09:36:06.450Z,17.91
2022-10-23T09:39:22.492Z,18.00
2022-10-23T09:42:25.777Z,18.13
2022-10-23T09:45:34.568Z,18.30
2022-10-23T09:48:42.126Z,18.41
2022-10-23T09:51:52.690Z,18.59
2022-10-23T09:54:58.145Z,18.75
2022-10-23T09:57:59.940Z,18.93
2022-10-23T10:01:02.268Z,18.98
2022-10-23T10:04:38.468Z,18.98
2022-10-23T10:07:39.957Z,18.96
2022-10-23T10:10:47.666Z,18.99
2022-10-23T10:14:35.202Z,18.91
2022-10-23T10:17:47.518Z,18.83
2022-10-23T10:21:02.488Z,18.79
2022-10-23T10:24:49.337Z,18.88
2022-10-23T10:28:21.509Z,18.96
2022-10-23T10:31:44.267Z,19.06
2022-10-23T10:34:59.382Z,19.20
2022-10-23T10:38:12.092Z,19.19
2022-10-23T10:41:22.562Z,19.31
2022-10-23T10:44:40.597Z,19.37
2022-10-23T10:48:09.980Z,19.46
2022-10-23T10:51:34.331Z,19.50
2022-10-23T10:54:54.225Z,19.50
2022-10-23T10:58:02.626Z,19.54
2022-10-23T11:01:14.378Z,19.54
2022-10-23T11:04:31.717Z,19.75
2022-10-23T11:07:42.971Z,19.97
2022-10-23T11:10:49.325Z,20.01
2022-10-23T11:13:53.150Z,19.96
2022-10-23T11:17:16.812Z,19.93
2022-10-23T11:20:33.404Z,19.96
2022-10-23T11:23:56.954Z,19.94
2022-10-23T11:27:26.460Z,20.04
2022-10-23T11:31:11.885Z,20.12
2022-10-23T11:34:41.670Z,20.25
2022-10-23T11:37:43.635Z,20.22
2022-10-23T11:44:01.389Z,20.06
2022-10-23T11:47:24.872Z,20.09
2022-10-23T11:50:49.393Z,20.38
2022-10-23T11:53:50.930Z,20.49
2022-10-23T11:57:11.648Z,20.64
2022-10-23T12:00:23.094Z,20.76
2022-10-23T12:03:30.419Z,20.89
2022-10-23T12:06:52.416Z,20.87
2022-10-23T12:10:06.391Z,20.82
2022-10-23T12:13:36.448Z,20.78
2022-10-23T12:16:38.224Z,20.79
2022-10-23T12:19:55.767Z,20.73
2022-10-23T12:23:15.406Z,20.60
2022-10-23T12:26:20.580Z,20.58
2022-10-23T12:29:48.450Z,20.67
2022-10-23T12:33:08.402Z,20.70
2022-10-23T12:36:42.757Z,20.77
2022-10-23T12:39:51.501Z,20.91
2022-10-23T12:42:55.651Z,21.02
2022-10-23T12:46:03.778Z,21.10
2022-10-23T12:49:17.049Z,21.18
2022-10-23T12:52:20.956Z,21.31
2022-10-23T12:55:24.425Z,21.38
2022-10-23T12:58:31.958Z,21.44
2022-10-23T13:01:39.369Z,21.51
2022-10-23T13:04:43.174Z,21.47
2022-10-23T13:07:47.232Z,21.42
2022-10-23T13:10:51.413Z,21.41
2022-10-23T13:13:54.356Z,21.39
2022-10-23T13:17:04.502Z,21.48
2022-10-23T13:20:17.814Z,21.59
2022-10-23T13:23:28.010Z,21.74
2022-10-23T13:26:44.867Z,21.74
2022-10-23T13:29:46.255Z,21.69
2022-10-23T13:32:47.658Z,21.70
2022-10-23T13:36:00.641Z,21.65
2022-10-23T13:39:11.248Z,21.55
2022-10-23T13:42:14.498Z,21.51
2022-10-23T13:45:22.724Z,21.42
2022-10-23T13:48:24.346Z,21.39
2022-10-23T13:51:28.477Z,21.35
2022-10-23T13:54:30.512Z,21.35
2022-10-23T13:57:31.908Z,21.34
2022-10-23T14:00:33.331Z,21.30
2022-10-23T14:03:35.401Z,21.30
2022-10-23T14:06:38.104Z,21.25
2022-10-23T14:09:39.492Z,21.29
2022-10-23T14:12:42.127Z,21.27
2022-10-23T14:15:43.850Z,21.18
2022-10-23T14:18:45.353Z,21.11
2022-10-23T14:21:46.726Z,21.07
2022-10-23T14:24:48.104Z,20.98
2022-10-23T14:27:49.645Z,20.95
2022-10-23T14:30:51.085Z,20.92
2022-10-23T14:33:55.940Z,20.77
2022-10-23T14:37:08.060Z,20.73
2022-10-23T14:40:10.607Z,20.66
2022-10-23T14:43:12.024Z,20.66
2022-10-23T14:46:16.178Z,20.66
2022-10-23T14:49:17.607Z,20.63
2022-10-23T14:52:19.110Z,20.61
2022-10-23T14:55:20.628Z,20.62
2022-10-23T14:58:24.149Z,20.62
2022-10-23T15:01:25.616Z,20.57
2022-10-23T15:04:27.174Z,20.55
2022-10-23T15:07:28.557Z,20.57
2022-10-23T15:10:29.967Z,20.57
2022-10-23T15:13:31.469Z,20.54
2022-10-23T15:16:33.219Z,20.53
2022-10-23T15:19:34.628Z,20.52
2022-10-23T15:22:36.125Z,20.48
2022-10-23T15:25:40.484Z,20.43
2022-10-23T15:28:41.873Z,20.42
2022-10-23T15:31:47.275Z,20.40
2022-10-23T15:34:49.645Z,20.36
2022-10-23T15:37:51.128Z,20.37
2022-10-23T15:40:58.545Z,20.34
2022-10-23T15:44:02.043Z,20.31
2022-10-23T15:47:03.602Z,20.32
2022-10-23T15:50:05.429Z,20.32
2022-10-23T15:53:06.913Z,20.21
2022-10-23T15:56:08.293Z,20.17
2022-10-23T15:59:09.698Z,20.15
2022-10-23T16:02:12.044Z,20.18
2022-10-23T16:05:13.542Z,20.11
2022-10-23T16:08:14.955Z,20.04
2022-10-23T16:11:22.396Z,19.97
2022-10-23T16:14:23.788Z,19.94
2022-10-23T16:17:25.195Z,19.91
2022-10-23T16:20:26.613Z,19.88
2022-10-23T16:23:28.318Z,19.85
2022-10-23T16:26:30.325Z,19.75
2022-10-23T16:29:31.802Z,19.78
2022-10-23T16:32:33.308Z,19.74
2022-10-23T16:35:36.608Z,19.88
2022-10-23T16:38:46.547Z,19.91
2022-10-23T16:41:48.033Z,19.86
2022-10-23T16:44:52.461Z,19.89
2022-10-23T16:47:53.902Z,20.02
2022-10-23T16:50:55.363Z,19.96
2022-10-23T16:53:57.881Z,19.89
2022-10-23T16:56:59.356Z,19.86
2022-10-23T17:00:00.737Z,19.89
2022-10-23T17:03:03.286Z,19.86
2022-10-23T17:06:08.850Z,19.97
2022-10-23T17:09:12.438Z,19.92
2022-10-23T17:12:14.794Z,19.92
2022-10-23T17:15:16.640Z,19.86
2022-10-23T17:18:18.198Z,19.76
2022-10-23T17:21:21.232Z,19.76
2022-10-23T17:24:23.516Z,19.63
2022-10-23T17:27:24.910Z,19.60
2022-10-23T17:30:26.452Z,19.54
2022-10-23T17:33:27.969Z,19.48
2022-10-23T17:36:31.408Z,19.42
2022-10-23T17:39:32.834Z,19.40
2022-10-23T17:42:34.254Z,19.42
2022-10-23T17:45:36.432Z,19.46
2022-10-23T17:48:47.486Z,19.34
2022-10-23T17:51:52.628Z,19.07
2022-10-23T17:54:54.021Z,18.95
2022-10-23T17:57:55.469Z,18.87
2022-10-23T18:00:57.052Z,18.58
2022-10-23T18:04:03.963Z,18.35
2022-10-23T18:07:05.428Z,18.22
2022-10-23T18:10:07.328Z,18.05
2022-10-23T18:13:08.793Z,17.99
2022-10-23T18:16:11.585Z,17.93
2022-10-23T18:19:18.056Z,17.88
2022-10-23T18:25:25.968Z,17.81
2022-10-23T18:28:28.586Z,17.80
2022-10-23T18:31:30.290Z,17.81
2022-10-23T18:34:31.729Z,17.82
2022-10-23T18:37:34.729Z,17.85
2022-10-23T18:40:41.268Z,17.80
2022-10-23T18:43:44.734Z,17.77
2022-10-23T18:46:47.930Z,17.79
2022-10-23T18:49:49.372Z,17.77
2022-10-23T18:52:50.775Z,17.84
2022-10-23T18:55:52.311Z,17.77
2022-10-23T18:58:56.163Z,17.68
2022-10-23T19:01:57.702Z,17.66
2022-10-23T19:04:59.289Z,17.65
2022-10-23T19:08:00.782Z,17.64
2022-10-23T19:11:03.356Z,17.61
2022-10-23T19:14:05.542Z,17.56
2022-10-23T19:17:17.120Z,17.62
2022-10-23T19:20:20.601Z,17.67
2022-10-23T19:23:22.296Z,17.66
2022-10-23T19:26:23.686Z,17.63
2022-10-23T19:29:26.573Z,17.66
2022-10-23T19:32:28.075Z,17.66
2022-10-23T19:35:29.469Z,17.63
2022-10-23T19:38:31.418Z,17.70
2022-10-23T19:41:32.853Z,17.66
2022-10-23T19:44:34.716Z,17.63
2022-10-23T19:47:36.571Z,17.59
2022-10-23T19:50:38.055Z,17.58
2022-10-23T19:53:40.787Z,17.55
2022-10-23T19:56:42.405Z,17.56
2022-10-23T19:59:48.452Z,17.55
2022-10-23T20:02:52.760Z,17.55
2022-10-23T20:05:56.614Z,17.53
2022-10-23T20:08:57.998Z,17.50
2022-10-23T20:12:00.466Z,17.45
2022-10-23T20:15:01.931Z,17.46
2022-10-23T20:18:04.187Z,17.43
2022-10-23T20:21:05.744Z,17.46
2022-10-23T20:24:08.309Z,17.42
2022-10-23T20:27:10.786Z,17.42
2022-10-23T20:30:12.626Z,17.40
2022-10-23T20:33:14.024Z,17.39
2022-10-23T20:36:28.053Z,17.40
2022-10-23T20:39:29.900Z,17.38
2022-10-23T20:42:31.327Z,17.38
2022-10-23T20:45:33.949Z,17.34
2022-10-23T20:48:40.120Z,17.34
2022-10-23T20:51:42.112Z,17.36
2022-10-23T20:54:43.668Z,17.38
2022-10-23T20:57:45.429Z,17.37
2022-10-23T21:00:47.567Z,17.34
2022-10-23T21:03:51.163Z,17.30
2022-10-23T21:07:10.705Z,17.27
2022-10-23T21:10:12.647Z,17.29
2022-10-23T21:13:14.114Z,17.28
2022-10-23T21:16:27.617Z,17.24
2022-10-23T21:19:30.015Z,17.20
2022-10-23T21:22:31.426Z,17.21
2022-10-23T21:25:32.832Z,17.19
2022-10-23T21:28:34.795Z,17.18
2022-10-23T21:31:36.188Z,17.15
2022-10-23T21:34:37.686Z,17.16
2022-10-23T21:37:39.070Z,17.15
2022-10-23T21:40:40.522Z,17.18
2022-10-23T21:43:42.485Z,17.18
2022-10-23T21:46:44.110Z,17.16
2022-10-23T21:49:45.529Z,17.16
2022-10-23T21:52:51.710Z,17.12
2022-10-23T21:55:54.083Z,17.09
2022-10-23T21:58:56.577Z,17.10
2022-10-23T22:01:58.197Z,17.02
2022-10-23T22:04:59.676Z,17.00
2022-10-23T22:08:01.082Z,16.99
2022-10-23T22:11:05.366Z,16.92
2022-10-23T22:14:07.439Z,16.94
2022-10-23T22:17:08.926Z,16.90
2022-10-23T22:20:10.578Z,16.87
2022-10-23T22:23:11.952Z,16.83
2022-10-23T22:26:32.965Z,16.96
2022-10-23T22:29:35.283Z,17.05
2022-10-23T22:32:36.652Z,17.07
2022-10-23T22:35:38.061Z,17.13
2022-10-23T22:38:39.816Z,17.08
2022-10-23T22:41:43.113Z,17.08
2022-10-23T22:44:44.527Z,17.10
2022-10-23T22:47:46.074Z,17.09
2022-10-23T22:50:47.512Z,17.06
2022-10-23T22:53:48.964Z,17.05
2022-10-23T22:56:50.356Z,17.03
2022-10-23T22:59:51.728Z,16.98
2022-10-23T23:02:53.889Z,17.00
2022-10-23T23:05:55.329Z,16.93
2022-10-23T23:08:56.828Z,16.88
2022-10-23T23:11:58.276Z,16.86
2022-10-23T23:15:00.212Z,16.84
2022-10-23T23:18:01.591Z,16.83
2022-10-23T23:21:04.728Z,16.82
2022-10-23T23:24:06.229Z,16.83
2022-10-23T23:27:07.695Z,16.84
2022-10-23T23:30:09.660Z,16.82
2022-10-23T23:33:11.956Z,16.85
2022-10-23T23:36:16.420Z,16.85
2022-10-23T23:39:17.910Z,16.85
2022-10-23T23:42:19.347Z,16.81
2022-10-23T23:45:20.743Z,16.76
2022-10-23T23:48:22.352Z,16.75
2022-10-23T23:51:25.181Z,16.78
2022-10-23T23:54:26.644Z,16.89
2022-10-23T23:57:28.109Z,16.89
